createdAt,value
2023-05-20T00:00:02.060Z,5.35
2023-05-20T00:02:30.422Z,4.57
2023-05-20T00:04:58.965Z,4.18
2023-05-20T00:07:27.427Z,4.35
2023-05-20T00:09:55.891Z,5.22
2023-05-20T00:12:24.024Z,5.60
2023-05-20T00:14:55.877Z,5.50
2023-05-20T00:17:26.647Z,5.15
2023-05-20T00:19:55.166Z,4.40
2023-05-20T00:22:23.574Z,5.78
2023-05-20T00:24:51.914Z,5.75
2023-05-20T00:27:20.125Z,4.43
2023-05-20T00:29:48.323Z,4.45
2023-05-20T00:32:18.182Z,5.50
2023-05-20T00:34:56.980Z,5.35
2023-05-20T00:37:25.262Z,5.18
2023-05-20T00:39:53.962Z,6.85
2023-05-20T00:42:22.742Z,5.18
2023-05-20T00:44:51.079Z,5.55
2023-05-20T00:47:28.055Z,4.60
2023-05-20T00:49:56.529Z,4.30
2023-05-20T00:52:25.315Z,3.67
2023-05-20T00:54:54.308Z,4.70
2023-05-20T00:57:22.970Z,4.85
2023-05-20T00:59:51.357Z,5.45
2023-05-20T01:02:21.379Z,4.82
2023-05-20T01:04:49.830Z,4.32
2023-05-20T01:07:19.267Z,5.57
2023-05-20T01:09:47.654Z,5.38
2023-05-20T01:12:22.418Z,5.45
2023-05-20T01:14:52.407Z,5.60
2023-05-20T01:17:22.617Z,6.18
2023-05-20T01:19:51.710Z,5.22
2023-05-20T01:22:20.790Z,5.18
2023-05-20T01:24:53.708Z,5.75
2023-05-20T01:27:23.744Z,6.70
2023-05-20T01:29:52.995Z,5.43
2023-05-20T01:32:24.247Z,4.65
2023-05-20T01:34:54.315Z,6.65
2023-05-20T01:37:25.358Z,5.93
2023-05-20T01:39:56.807Z,5.30
2023-05-20T01:44:53.758Z,7.65
2023-05-20T01:47:22.034Z,4.80
2023-05-20T01:49:53.108Z,5.07
2023-05-20T01:52:21.545Z,5.07
2023-05-20T01:54:51.484Z,6.20
2023-05-20T01:57:22.136Z,6.25
2023-05-20T01:59:50.594Z,5.97
2023-05-20T02:02:19.391Z,5.90
2023-05-20T02:04:49.349Z,5.38
2023-05-20T02:07:19.064Z,5.43
2023-05-20T02:09:47.767Z,5.70
2023-05-20T02:12:17.548Z,5.15
2023-05-20T02:14:50.514Z,5.30
2023-05-20T02:17:19.155Z,5.35
2023-05-20T02:19:47.791Z,6.28
2023-05-20T02:22:16.529Z,5.60
2023-05-20T02:24:44.953Z,5.07
2023-05-20T02:27:13.284Z,5.90
2023-05-20T02:29:41.681Z,5.13
2023-05-20T02:32:11.377Z,5.60
2023-05-20T02:34:39.558Z,4.97
2023-05-20T02:37:07.890Z,4.85
2023-05-20T02:39:36.176Z,6.20
2023-05-20T02:42:05.414Z,5.72
2023-05-20T02:44:33.527Z,5.70
2023-05-20T02:47:01.740Z,6.38
2023-05-20T02:49:31.520Z,5.68
2023-05-20T02:51:59.837Z,5.70
2023-05-20T02:54:28.136Z,6.88
2023-05-20T02:56:56.338Z,5.28
2023-05-20T02:59:24.912Z,6.15
2023-05-20T03:01:53.210Z,5.28
2023-05-20T03:04:21.916Z,5.68
2023-05-20T03:06:52.254Z,5.55
2023-05-20T03:09:21.069Z,6.35
2023-05-20T03:11:49.570Z,7.13
2023-05-20T03:14:17.733Z,7.18
2023-05-20T03:16:46.018Z,6.70
2023-05-20T03:19:14.263Z,6.78
2023-05-20T03:21:43.916Z,5.00
2023-05-20T03:24:13.591Z,5.75
2023-05-20T03:26:43.331Z,5.80
2023-05-20T03:29:11.929Z,5.88
2023-05-20T03:31:40.595Z,6.18
2023-05-20T03:34:09.369Z,5.50
2023-05-20T03:36:37.812Z,5.43
2023-05-20T03:39:06.125Z,6.15
2023-05-20T03:41:35.734Z,5.97
2023-05-20T03:44:03.978Z,5.47
2023-05-20T03:46:34.359Z,6.07
2023-05-20T03:49:03.336Z,6.57
2023-05-20T03:51:31.800Z,5.93
2023-05-20T03:54:00.074Z,7.25
2023-05-20T03:56:28.303Z,4.97
2023-05-20T03:58:58.434Z,5.65
2023-05-20T04:01:26.938Z,4.95
2023-05-20T04:03:55.337Z,6.45
2023-05-20T04:06:23.736Z,5.93
2023-05-20T04:08:53.696Z,5.57
2023-05-20T04:11:21.984Z,5.43
2023-05-20T04:13:50.153Z,5.93
2023-05-20T04:16:20.200Z,5.13
2023-05-20T04:18:48.588Z,4.72
2023-05-20T04:21:16.978Z,5.70
2023-05-20T04:23:45.277Z,4.65
2023-05-20T04:26:13.515Z,4.25
2023-05-20T04:28:42.162Z,4.97
2023-05-20T04:31:10.819Z,4.80
2023-05-20T04:33:40.472Z,3.63
2023-05-20T04:36:12.237Z,4.47
2023-05-20T04:38:42.403Z,4.97
2023-05-20T04:41:10.960Z,5.10
2023-05-20T04:43:40.497Z,5.63
2023-05-20T04:46:09.015Z,5.28
2023-05-20T04:48:37.306Z,4.95
2023-05-20T04:51:07.211Z,6.00
2023-05-20T04:53:36.196Z,5.15
2023-05-20T04:56:05.811Z,4.25
2023-05-20T04:58:34.209Z,5.15
2023-05-20T05:01:02.862Z,4.38
2023-05-20T05:03:31.445Z,5.10
2023-05-20T05:06:00.374Z,4.22
2023-05-20T05:08:30.033Z,4.65
2023-05-20T05:10:58.275Z,5.03
2023-05-20T05:13:26.831Z,4.82
2023-05-20T05:16:01.257Z,5.25
2023-05-20T05:18:29.564Z,4.20
2023-05-20T05:21:02.124Z,4.80
2023-05-20T05:23:31.840Z,4.65
2023-05-20T05:26:00.149Z,4.38
2023-05-20T05:28:28.398Z,5.53
2023-05-20T05:30:57.363Z,5.68
2023-05-20T05:33:25.825Z,4.85
2023-05-20T05:35:54.056Z,4.65
2023-05-20T05:38:22.198Z,4.13
2023-05-20T05:40:51.886Z,5.20
2023-05-20T05:43:20.171Z,4.60
2023-05-20T05:45:48.396Z,4.00
2023-05-20T05:48:16.655Z,4.50
2023-05-20T05:50:47.183Z,4.32
2023-05-20T05:53:15.505Z,4.95
2023-05-20T05:55:43.654Z,3.88
2023-05-20T05:58:13.668Z,3.70
2023-05-20T06:00:42.017Z,4.22
2023-05-20T06:03:10.558Z,3.90
2023-05-20T06:05:38.844Z,3.67
2023-05-20T06:08:07.231Z,5.38
2023-05-20T06:10:35.456Z,4.68
2023-05-20T06:13:03.694Z,3.72
2023-05-20T06:15:33.695Z,3.70
2023-05-20T06:18:02.122Z,4.82
2023-05-20T06:20:30.308Z,5.10
2023-05-20T06:22:58.670Z,4.32
2023-05-20T06:25:27.051Z,4.50
2023-05-20T06:27:55.251Z,6.07
2023-05-20T06:30:23.971Z,3.83
2023-05-20T06:32:54.019Z,5.57
2023-05-20T06:35:22.297Z,5.55
2023-05-20T06:37:50.739Z,4.82
2023-05-20T06:40:19.358Z,4.03
2023-05-20T06:42:47.656Z,6.30
2023-05-20T06:45:15.926Z,4.45
2023-05-20T06:47:44.171Z,5.25
2023-05-20T06:50:14.210Z,4.53
2023-05-20T06:52:42.424Z,4.57
2023-05-20T06:55:11.378Z,3.95
2023-05-20T06:57:39.718Z,3.30
2023-05-20T07:00:09.399Z,3.85
2023-05-20T07:02:37.652Z,4.97
2023-05-20T07:05:06.351Z,3.80
2023-05-20T07:07:36.112Z,3.90
2023-05-20T07:10:05.904Z,3.90
2023-05-20T07:12:36.539Z,4.93
2023-05-20T07:15:05.508Z,4.65
2023-05-20T07:17:33.754Z,4.00
2023-05-20T07:20:02.059Z,4.05
2023-05-20T07:22:30.366Z,4.07
2023-05-20T07:25:01.371Z,4.30
2023-05-20T07:27:29.578Z,4.72
2023-05-20T07:29:57.966Z,4.13
2023-05-20T07:32:26.356Z,4.35
2023-05-20T07:34:54.860Z,4.28
2023-05-20T07:37:23.177Z,4.68
2023-05-20T07:39:51.392Z,4.00
2023-05-20T07:42:21.381Z,3.63
2023-05-20T07:44:49.649Z,3.70
2023-05-20T07:47:17.812Z,3.72
2023-05-20T07:49:47.022Z,4.43
2023-05-20T07:52:15.321Z,3.13
2023-05-20T07:54:43.599Z,3.20
2023-05-20T07:57:12.158Z,3.47
2023-05-20T07:59:41.809Z,4.50
2023-05-20T08:02:10.117Z,3.58
2023-05-20T08:04:38.826Z,4.05
2023-05-20T08:07:07.351Z,4.28
2023-05-20T08:09:36.236Z,3.90
2023-05-20T08:12:04.744Z,4.18
2023-05-20T08:14:33.024Z,4.05
2023-05-20T08:17:02.801Z,3.83
2023-05-20T08:19:31.204Z,3.40
2023-05-20T08:22:00.009Z,4.45
2023-05-20T08:24:28.342Z,3.78
2023-05-20T08:26:56.708Z,4.40
2023-05-20T08:29:25.419Z,4.10
2023-05-20T08:31:53.742Z,4.70
2023-05-20T08:34:23.348Z,4.10
2023-05-20T08:36:51.620Z,4.90
2023-05-20T08:39:19.833Z,4.10
2023-05-20T08:41:49.046Z,4.22
2023-05-20T08:44:20.317Z,4.40
2023-05-20T08:46:50.154Z,4.85
2023-05-20T08:49:18.679Z,4.28
2023-05-20T08:51:49.309Z,4.00
2023-05-20T08:54:19.233Z,4.07
2023-05-20T08:56:47.971Z,4.10
2023-05-20T08:59:17.014Z,4.32
2023-05-20T09:01:45.915Z,4.10
2023-05-20T09:04:14.177Z,4.47
2023-05-20T09:06:46.178Z,4.35
2023-05-20T09:09:16.224Z,3.80
2023-05-20T09:11:44.930Z,4.07
2023-05-20T09:14:13.140Z,4.45
2023-05-20T09:16:42.644Z,3.78
2023-05-20T09:19:11.918Z,3.85
2023-05-20T09:21:43.195Z,4.28
2023-05-20T09:24:11.491Z,4.40
2023-05-20T09:26:41.629Z,3.75
2023-05-20T09:29:09.878Z,3.90
2023-05-20T09:31:39.021Z,4.88
2023-05-20T09:34:08.734Z,5.20
2023-05-20T09:36:37.420Z,3.72
2023-05-20T09:39:07.014Z,4.30
2023-05-20T09:41:39.763Z,4.32
2023-05-20T09:44:10.099Z,6.28
2023-05-20T09:46:39.808Z,5.68
2023-05-20T09:49:08.502Z,7.82
2023-05-20T09:51:37.142Z,6.25
2023-05-20T09:54:08.525Z,6.65
2023-05-20T09:56:38.077Z,5.07
2023-05-20T09:59:09.290Z,4.45
2023-05-20T10:01:37.508Z,5.22
2023-05-20T10:04:08.742Z,4.38
2023-05-20T10:06:57.673Z,4.75
2023-05-20T10:09:49.814Z,3.67
2023-05-20T10:12:28.994Z,4.40
2023-05-20T10:15:10.109Z,4.70
2023-05-20T10:17:46.883Z,5.30
2023-05-20T10:20:15.708Z,4.35
2023-05-20T10:22:45.461Z,4.30
2023-05-20T10:25:25.513Z,4.80
2023-05-20T10:27:53.871Z,4.07
2023-05-20T10:30:24.072Z,4.70
2023-05-20T10:32:56.815Z,4.30
2023-05-20T10:35:27.324Z,4.00
2023-05-20T10:37:56.891Z,5.68
2023-05-20T10:40:26.956Z,5.00
2023-05-20T10:42:55.248Z,4.25
2023-05-20T10:45:29.224Z,5.10
2023-05-20T10:47:58.514Z,4.70
2023-05-20T10:50:31.758Z,5.03
2023-05-20T10:53:09.388Z,5.68
2023-05-20T10:55:42.505Z,4.80
2023-05-20T10:58:11.684Z,4.88
2023-05-20T11:00:41.636Z,4.53
2023-05-20T11:03:11.984Z,4.40
2023-05-20T11:05:41.709Z,3.70
2023-05-20T11:08:27.196Z,4.10
2023-05-20T11:10:58.037Z,3.95
2023-05-20T11:13:26.872Z,4.03
2023-05-20T11:15:57.611Z,3.05
2023-05-20T11:18:25.973Z,3.88
2023-05-20T11:20:54.532Z,4.47
2023-05-20T11:23:23.471Z,4.80
2023-05-20T11:25:52.624Z,4.53
2023-05-20T11:28:21.833Z,4.43
2023-05-20T11:30:50.547Z,3.55
2023-05-20T11:33:20.726Z,4.45
2023-05-20T11:35:50.970Z,4.38
2023-05-20T11:38:20.831Z,3.70
2023-05-20T11:40:54.333Z,3.78
2023-05-20T11:43:24.605Z,4.82
2023-05-20T11:45:55.952Z,4.30
2023-05-20T11:48:26.007Z,4.50
2023-05-20T11:50:55.716Z,3.58
2023-05-20T11:53:25.607Z,4.32
2023-05-20T11:55:56.191Z,4.03
2023-05-20T11:58:26.442Z,3.50
2023-05-20T12:01:05.242Z,3.63
2023-05-20T12:03:39.538Z,4.20
2023-05-20T12:06:08.033Z,4.05
2023-05-20T12:08:36.315Z,3.85
2023-05-20T12:11:04.478Z,3.67
2023-05-20T12:13:34.911Z,4.45
2023-05-20T12:16:04.422Z,3.53
2023-05-20T12:18:33.104Z,4.15
2023-05-20T12:21:02.879Z,3.72
2023-05-20T12:23:34.380Z,3.53
2023-05-20T12:26:02.912Z,4.13
2023-05-20T12:28:32.164Z,5.88
2023-05-20T12:31:01.139Z,4.03
2023-05-20T12:33:29.814Z,4.45
2023-05-20T12:35:58.148Z,4.07
2023-05-20T12:38:28.194Z,4.95
2023-05-20T12:40:56.759Z,4.43
2023-05-20T12:43:25.001Z,4.90
2023-05-20T12:45:53.590Z,4.13
2023-05-20T12:48:21.955Z,4.95
2023-05-20T12:50:50.149Z,5.45
2023-05-20T12:53:18.383Z,5.10
2023-05-20T12:55:48.073Z,5.75
2023-05-20T12:58:16.273Z,6.43
2023-05-20T13:00:44.527Z,6.65
2023-05-20T13:03:13.084Z,4.65
2023-05-20T13:05:41.440Z,5.13
2023-05-20T13:08:11.045Z,4.38
2023-05-20T13:10:39.499Z,4.43
2023-05-20T13:13:09.134Z,3.90
2023-05-20T13:15:37.474Z,4.50
2023-05-20T13:18:07.151Z,4.60
2023-05-20T13:20:35.903Z,4.88
2023-05-20T13:23:04.460Z,4.95
2023-05-20T13:25:33.369Z,4.18
2023-05-20T13:28:01.613Z,4.68
2023-05-20T13:30:31.142Z,4.50
2023-05-20T13:33:00.855Z,5.43
2023-05-20T13:35:29.245Z,4.22
2023-05-20T13:37:57.605Z,4.70
2023-05-20T13:40:26.612Z,4.38
2023-05-20T13:42:55.437Z,5.30
2023-05-20T13:45:23.800Z,4.78
2023-05-20T13:47:53.413Z,4.03
2023-05-20T13:50:21.634Z,4.70
2023-05-20T13:52:49.979Z,5.05
2023-05-20T13:55:18.254Z,5.05
2023-05-20T13:57:46.488Z,4.50
2023-05-20T14:00:15.788Z,4.95
2023-05-20T14:02:44.006Z,4.00
2023-05-20T14:05:14.932Z,4.38
2023-05-20T14:07:43.266Z,5.85
2023-05-20T14:10:12.155Z,4.55
2023-05-20T14:12:40.407Z,4.82
2023-05-20T14:15:09.688Z,4.45
2023-05-20T14:17:37.879Z,4.57
2023-05-20T14:20:07.483Z,4.10
2023-05-20T14:22:37.263Z,4.05
2023-05-20T14:25:06.313Z,4.53
2023-05-20T14:27:34.619Z,3.50
2023-05-20T14:30:02.756Z,3.22
2023-05-20T14:32:31.040Z,2.55
2023-05-20T14:35:00.161Z,3.50
2023-05-20T14:37:28.493Z,3.05
2023-05-20T14:39:58.226Z,3.05
2023-05-20T14:42:26.717Z,3.53
2023-05-20T14:44:54.936Z,3.17
2023-05-20T14:47:23.306Z,3.05
2023-05-20T14:49:51.595Z,3.35
2023-05-20T14:52:20.068Z,3.28
2023-05-20T14:54:48.528Z,3.38
2023-05-20T14:57:18.603Z,3.92
2023-05-20T14:59:46.932Z,3.17
2023-05-20T15:02:16.299Z,2.83
2023-05-20T15:04:46.733Z,3.03
2023-05-20T15:07:15.507Z,3.60
2023-05-20T15:09:43.928Z,4.20
2023-05-20T15:12:12.758Z,3.85
2023-05-20T15:14:42.363Z,3.53
2023-05-20T15:17:10.611Z,3.42
2023-05-20T15:19:41.402Z,3.22
2023-05-20T15:22:10.327Z,3.20
2023-05-20T15:24:38.595Z,3.42
2023-05-20T15:27:07.144Z,4.28
2023-05-20T15:29:35.699Z,3.13
2023-05-20T15:32:06.084Z,3.50
2023-05-20T15:34:34.713Z,3.67
2023-05-20T15:37:03.343Z,3.90
2023-05-20T15:39:31.678Z,4.40
2023-05-20T15:42:02.162Z,4.30
2023-05-20T15:44:30.422Z,3.97
2023-05-20T15:46:58.732Z,4.13
2023-05-20T15:49:28.940Z,4.45
2023-05-20T15:52:03.415Z,5.03
2023-05-20T15:54:33.168Z,4.75
2023-05-20T15:57:02.714Z,4.32
2023-05-20T15:59:31.042Z,3.83
2023-05-20T16:01:59.536Z,4.75
2023-05-20T16:04:29.705Z,5.75
2023-05-20T16:06:57.916Z,4.68
2023-05-20T16:09:26.200Z,3.80
2023-05-20T16:11:54.410Z,4.03
2023-05-20T16:14:22.651Z,4.97
2023-05-20T16:16:50.858Z,4.78
2023-05-20T16:19:19.123Z,4.93
2023-05-20T16:21:48.925Z,6.10
2023-05-20T16:24:17.530Z,5.28
2023-05-20T16:26:45.895Z,5.88
2023-05-20T16:29:16.407Z,8.10
2023-05-20T16:31:46.848Z,7.85
2023-05-20T16:34:16.546Z,6.90
2023-05-20T16:36:46.398Z,8.70
2023-05-20T16:39:16.603Z,8.48
2023-05-20T16:41:44.869Z,8.73
2023-05-20T16:44:13.146Z,9.23
2023-05-20T16:46:41.439Z,8.32
2023-05-20T16:49:09.845Z,9.55
2023-05-20T16:51:38.171Z,10.02
2023-05-20T16:54:06.610Z,11.13
2023-05-20T16:56:36.885Z,8.98
2023-05-20T16:59:05.233Z,10.07
2023-05-20T17:01:33.591Z,10.77
2023-05-20T17:04:02.014Z,11.18
2023-05-20T17:06:34.558Z,13.43
2023-05-20T17:09:04.439Z,12.43
2023-05-20T17:11:32.714Z,15.18
2023-05-20T17:14:03.184Z,17.00
2023-05-20T17:16:31.489Z,19.30
2023-05-20T17:18:59.893Z,19.98
2023-05-20T17:21:28.413Z,18.67
2023-05-20T17:23:56.715Z,17.80
2023-05-20T17:26:26.149Z,18.35
2023-05-20T17:28:54.375Z,16.83
2023-05-20T17:31:24.234Z,16.30
2023-05-20T17:33:52.536Z,18.42
2023-05-20T17:36:22.662Z,17.48
2023-05-20T17:38:51.634Z,17.33
2023-05-20T17:41:19.970Z,16.38
2023-05-20T17:43:48.276Z,17.92
2023-05-20T17:46:16.638Z,16.20
2023-05-20T17:48:46.242Z,16.25
2023-05-20T17:51:14.502Z,17.70
2023-05-20T17:53:42.708Z,95.85
2023-05-20T17:56:11.108Z,54.35
2023-05-20T17:58:39.348Z,23.42
2023-05-20T18:01:09.407Z,24.40
2023-05-20T18:03:39.878Z,20.80
2023-05-20T18:06:09.738Z,24.73
2023-05-20T18:08:38.799Z,21.23
2023-05-20T18:11:07.378Z,16.27
2023-05-20T18:13:35.705Z,17.02
2023-05-20T18:16:04.096Z,18.67
2023-05-20T18:18:32.416Z,15.90
2023-05-20T18:21:00.794Z,16.42
2023-05-20T18:23:30.558Z,16.42
2023-05-20T18:25:58.842Z,16.02
2023-05-20T18:28:27.024Z,15.18
2023-05-20T18:30:55.816Z,15.05
2023-05-20T18:33:24.956Z,16.08
2023-05-20T18:35:54.260Z,13.85
2023-05-20T18:38:23.394Z,14.55
2023-05-20T18:40:53.111Z,14.63
2023-05-20T18:43:21.339Z,15.65
2023-05-20T18:45:49.683Z,13.98
2023-05-20T18:48:26.262Z,14.18
2023-05-20T18:50:56.389Z,15.48
2023-05-20T18:53:24.596Z,16.77
2023-05-20T18:55:54.308Z,17.92
2023-05-20T18:58:22.831Z,17.27
2023-05-20T19:00:51.205Z,17.13
2023-05-20T19:03:19.817Z,17.33
2023-05-20T19:05:48.157Z,16.40
2023-05-20T19:08:16.540Z,18.85
2023-05-20T19:10:45.027Z,16.70
2023-05-20T19:13:14.921Z,17.17
2023-05-20T19:15:43.361Z,16.55
2023-05-20T19:18:11.804Z,16.85
2023-05-20T19:20:40.149Z,17.45
2023-05-20T19:23:08.465Z,17.10
2023-05-20T19:25:36.977Z,18.67
2023-05-20T19:28:06.001Z,17.25
2023-05-20T19:30:35.751Z,17.83
2023-05-20T19:33:05.861Z,17.08
2023-05-20T19:35:34.910Z,17.65
2023-05-20T19:38:05.029Z,16.55
2023-05-20T19:40:33.313Z,15.98
2023-05-20T19:43:01.421Z,16.65
2023-05-20T19:45:29.850Z,17.35
2023-05-20T19:48:00.064Z,16.85
2023-05-20T19:50:28.433Z,18.48
2023-05-20T19:52:56.624Z,18.05
2023-05-20T19:55:24.915Z,17.70
2023-05-20T19:57:53.717Z,18.13
2023-05-20T20:00:22.668Z,17.75
2023-05-20T20:02:51.425Z,20.38
2023-05-20T20:05:23.767Z,18.70
2023-05-20T20:07:52.181Z,18.98
2023-05-20T20:10:20.345Z,18.38
2023-05-20T20:12:48.963Z,18.83
2023-05-20T20:15:17.506Z,21.83
2023-05-20T20:17:52.070Z,18.15
2023-05-20T20:20:23.543Z,20.90
2023-05-20T20:22:51.993Z,20.42
2023-05-20T20:25:21.745Z,18.52
2023-05-20T20:27:50.270Z,19.05
2023-05-20T20:30:18.587Z,19.45
2023-05-20T20:32:48.387Z,19.17
2023-05-20T20:35:17.245Z,19.17
2023-05-20T20:37:46.856Z,20.25
2023-05-20T20:40:15.173Z,19.55
2023-05-20T20:42:45.455Z,20.15
2023-05-20T20:45:13.825Z,20.50
2023-05-20T20:47:44.100Z,20.63
2023-05-20T20:50:12.854Z,20.48
2023-05-20T20:52:42.864Z,21.42
2023-05-20T20:55:13.091Z,20.55
2023-05-20T20:57:42.170Z,21.42
2023-05-20T21:00:16.701Z,21.30
2023-05-20T21:02:44.951Z,20.88
2023-05-20T21:05:14.681Z,20.90
2023-05-20T21:07:44.732Z,22.27
2023-05-20T21:10:14.629Z,22.15
2023-05-20T21:12:42.791Z,22.50
2023-05-20T21:15:12.647Z,22.23
2023-05-20T21:17:40.988Z,20.30
2023-05-20T21:20:10.277Z,20.30
2023-05-20T21:22:38.469Z,19.95
2023-05-20T21:25:07.750Z,21.50
2023-05-20T21:27:37.323Z,19.58
2023-05-20T21:30:06.475Z,19.38
2023-05-20T21:32:34.816Z,20.45
2023-05-20T21:35:03.230Z,19.02
2023-05-20T21:37:32.086Z,21.25
2023-05-20T21:40:00.301Z,19.40
2023-05-20T21:42:29.079Z,19.77
2023-05-20T21:44:58.850Z,19.88
2023-05-20T21:47:27.188Z,19.08
2023-05-20T21:49:55.400Z,21.90
2023-05-20T21:52:23.587Z,19.10
2023-05-20T21:54:51.885Z,18.70
2023-05-20T21:57:20.054Z,17.55
2023-05-20T21:59:48.985Z,19.48
2023-05-20T22:02:18.856Z,17.27
2023-05-20T22:04:49.393Z,17.55
2023-05-20T22:07:17.598Z,20.63
2023-05-20T22:09:45.890Z,20.45
2023-05-20T22:12:15.607Z,20.48
2023-05-20T22:14:43.800Z,20.92
2023-05-20T22:17:12.125Z,20.42
2023-05-20T22:19:41.669Z,20.05
2023-05-20T22:22:09.848Z,20.17
2023-05-20T22:24:38.193Z,18.17
2023-05-20T22:27:06.768Z,19.05
2023-05-20T22:29:35.294Z,16.95
2023-05-20T22:32:03.667Z,17.98
2023-05-20T22:34:32.337Z,15.10
2023-05-20T22:37:02.289Z,16.00
2023-05-20T22:39:30.653Z,17.50
2023-05-20T22:41:58.879Z,18.15
2023-05-20T22:44:27.153Z,17.60
2023-05-20T22:46:55.326Z,18.02
2023-05-20T22:49:25.260Z,18.92
2023-05-20T22:51:53.857Z,17.98
2023-05-20T22:54:23.479Z,19.08
2023-05-20T22:56:56.832Z,19.02
2023-05-20T22:59:25.282Z,18.52
2023-05-20T23:01:54.459Z,19.15
2023-05-20T23:04:22.675Z,16.58
2023-05-20T23:06:53.981Z,16.85
2023-05-20T23:09:23.669Z,16.25
2023-05-20T23:11:51.961Z,18.42
2023-05-20T23:14:21.326Z,16.83
2023-05-20T23:16:49.587Z,15.68
2023-05-20T23:19:18.082Z,17.60
2023-05-20T23:21:46.831Z,18.08
2023-05-20T23:24:15.622Z,17.08
2023-05-20T23:26:45.132Z,17.73
2023-05-20T23:29:13.399Z,17.67
2023-05-20T23:31:41.830Z,17.42
2023-05-20T23:34:10.217Z,20.25
2023-05-20T23:36:42.191Z,19.08
2023-05-20T23:39:10.603Z,17.88
2023-05-20T23:41:38.756Z,19.05
2023-05-20T23:44:08.436Z,19.70
2023-05-20T23:46:38.111Z,19.20
2023-05-20T23:49:06.845Z,18.77
2023-05-20T23:51:35.842Z,22.70
2023-05-20T23:54:04.102Z,21.40
2023-05-20T23:56:32.362Z,18.48
2023-05-20T23:59:00.500Z,20.45
